sensor_id;sensor_type;location;lat;lon;timestamp;P1;durP1;ratioP1;P2;durP2;ratioP2
47760;SDS011;33524;55.434;38.520;2023-09-19T00:00:39;12.77;;;9.38;;
47760;SDS011;33524;55.434;38.520;2023-09-19T00:03:07;12.45;;;8.75;;
47760;SDS011;33524;55.434;38.520;2023-09-19T00:05:36;15.25;;;10.60;;
47760;SDS011;33524;55.434;38.520;2023-09-19T00:10:32;14.93;;;9.38;;
47760;SDS011;33524;55.434;38.520;2023-09-19T00:13:04;11.20;;;8.57;;
47760;SDS011;33524;55.434;38.520;2023-09-19T00:15:40;12.90;;;8.88;;
47760;SDS011;33524;55.434;38.520;2023-09-19T00:18:09;11.23;;;8.07;;
47760;SDS011;33524;55.434;38.520;2023-09-19T00:20:38;11.85;;;9.65;;
47760;SDS011;33524;55.434;38.520;2023-09-19T00:23:06;12.48;;;9.30;;
47760;SDS011;33524;55.434;38.520;2023-09-19T00:25:36;13.15;;;9.32;;
47760;SDS011;33524;55.434;38.520;2023-09-19T00:28:03;12.68;;;9.10;;
47760;SDS011;33524;55.434;38.520;2023-09-19T00:30:33;11.65;;;9.57;;
47760;SDS011;33524;55.434;38.520;2023-09-19T00:33:02;12.15;;;10.27;;
47760;SDS011;33524;55.434;38.520;2023-09-19T00:35:33;15.32;;;11.02;;
47760;SDS011;33524;55.434;38.520;2023-09-19T00:38:02;14.23;;;10.55;;
47760;SDS011;33524;55.434;38.520;2023-09-19T00:45:28;11.60;;;9.65;;
47760;SDS011;33524;55.434;38.520;2023-09-19T00:47:57;11.75;;;9.63;;
47760;SDS011;33524;55.434;38.520;2023-09-19T00:50:31;14.50;;;10.57;;
47760;SDS011;33524;55.434;38.520;2023-09-19T00:53:00;12.40;;;9.32;;
47760;SDS011;33524;55.434;38.520;2023-09-19T00:55:29;13.35;;;10.38;;
47760;SDS011;33524;55.434;38.520;2023-09-19T01:00:28;15.10;;;9.93;;
47760;SDS011;33524;55.434;38.520;2023-09-19T01:02:56;16.23;;;10.13;;
47760;SDS011;33524;55.434;38.520;2023-09-19T01:05:25;13.00;;;10.05;;
47760;SDS011;33524;55.434;38.520;2023-09-19T01:07:51;14.93;;;10.25;;
47760;SDS011;33524;55.434;38.520;2023-09-19T01:10:21;14.13;;;10.32;;
47760;SDS011;33524;55.434;38.520;2023-09-19T01:15:40;13.00;;;9.93;;
47760;SDS011;33524;55.434;38.520;2023-09-19T01:18:33;15.00;;;12.30;;
47760;SDS011;33524;55.434;38.520;2023-09-19T01:21:21;17.58;;;12.85;;
47760;SDS011;33524;55.434;38.520;2023-09-19T01:32:04;17.52;;;12.07;;
47760;SDS011;33524;55.434;38.520;2023-09-19T01:34:50;16.95;;;12.63;;
47760;SDS011;33524;55.434;38.520;2023-09-19T01:40:03;14.82;;;11.25;;
47760;SDS011;33524;55.434;38.520;2023-09-19T01:42:58;16.98;;;12.85;;
47760;SDS011;33524;55.434;38.520;2023-09-19T01:48:49;14.18;;;10.38;;
47760;SDS011;33524;55.434;38.520;2023-09-19T01:52:24;10.98;;;8.25;;
47760;SDS011;33524;55.434;38.520;2023-09-19T01:54:51;15.63;;;11.38;;
47760;SDS011;33524;55.434;38.520;2023-09-19T02:00:44;12.40;;;10.57;;
47760;SDS011;33524;55.434;38.520;2023-09-19T02:03:16;15.18;;;10.57;;
47760;SDS011;33524;55.434;38.520;2023-09-19T02:05:51;11.85;;;9.70;;
47760;SDS011;33524;55.434;38.520;2023-09-19T02:10:51;11.85;;;8.95;;
47760;SDS011;33524;55.434;38.520;2023-09-19T02:13:20;14.23;;;11.00;;
47760;SDS011;33524;55.434;38.520;2023-09-19T02:15:52;12.65;;;9.93;;
47760;SDS011;33524;55.434;38.520;2023-09-19T02:18:21;14.43;;;9.93;;
47760;SDS011;33524;55.434;38.520;2023-09-19T02:23:19;8.35;;;7.32;;
47760;SDS011;33524;55.434;38.520;2023-09-19T02:25:56;13.00;;;10.45;;
47760;SDS011;33524;55.434;38.520;2023-09-19T02:28:33;10.82;;;9.25;;
47760;SDS011;33524;55.434;38.520;2023-09-19T02:31:03;13.57;;;10.18;;
47760;SDS011;33524;55.434;38.520;2023-09-19T02:36:01;15.48;;;11.05;;
47760;SDS011;33524;55.434;38.520;2023-09-19T02:38:32;13.20;;;10.95;;
47760;SDS011;33524;55.434;38.520;2023-09-19T02:41:01;13.65;;;10.68;;
47760;SDS011;33524;55.434;38.520;2023-09-19T02:43:29;10.85;;;9.25;;
47760;SDS011;33524;55.434;38.520;2023-09-19T02:45:58;12.82;;;11.05;;
47760;SDS011;33524;55.434;38.520;2023-09-19T02:48:26;13.57;;;10.70;;
47760;SDS011;33524;55.434;38.520;2023-09-19T02:53:22;12.55;;;9.35;;
47760;SDS011;33524;55.434;38.520;2023-09-19T02:55:51;13.65;;;10.65;;
47760;SDS011;33524;55.434;38.520;2023-09-19T03:00:48;14.48;;;9.93;;
47760;SDS011;33524;55.434;38.520;2023-09-19T03:03:18;13.52;;;10.43;;
47760;SDS011;33524;55.434;38.520;2023-09-19T03:05:46;11.88;;;9.48;;
47760;SDS011;33524;55.434;38.520;2023-09-19T03:10:46;12.65;;;9.32;;
47760;SDS011;33524;55.434;38.520;2023-09-19T03:13:16;11.02;;;9.02;;
47760;SDS011;33524;55.434;38.520;2023-09-19T03:15:45;12.88;;;9.38;;
47760;SDS011;33524;55.434;38.520;2023-09-19T03:18:18;10.30;;;8.18;;
47760;SDS011;33524;55.434;38.520;2023-09-19T03:20:53;11.48;;;8.65;;
47760;SDS011;33524;55.434;38.520;2023-09-19T03:23:22;10.05;;;8.15;;
47760;SDS011;33524;55.434;38.520;2023-09-19T03:25:51;10.40;;;7.43;;
47760;SDS011;33524;55.434;38.520;2023-09-19T03:28:20;14.82;;;8.68;;
47760;SDS011;33524;55.434;38.520;2023-09-19T03:31:01;9.95;;;8.63;;
47760;SDS011;33524;55.434;38.520;2023-09-19T03:33:32;11.27;;;8.75;;
47760;SDS011;33524;55.434;38.520;2023-09-19T03:36:02;11.95;;;9.18;;
47760;SDS011;33524;55.434;38.520;2023-09-19T03:38:34;10.18;;;7.18;;
47760;SDS011;33524;55.434;38.520;2023-09-19T03:41:03;9.40;;;7.18;;
47760;SDS011;33524;55.434;38.520;2023-09-19T03:43:33;12.65;;;8.85;;
47760;SDS011;33524;55.434;38.520;2023-09-19T03:46:02;10.50;;;8.68;;
47760;SDS011;33524;55.434;38.520;2023-09-19T03:48:33;8.40;;;6.28;;
47760;SDS011;33524;55.434;38.520;2023-09-19T03:53:30;12.02;;;9.00;;
47760;SDS011;33524;55.434;38.520;2023-09-19T03:55:58;8.82;;;6.43;;
47760;SDS011;33524;55.434;38.520;2023-09-19T04:00:57;7.53;;;5.35;;
47760;SDS011;33524;55.434;38.520;2023-09-19T04:03:26;6.80;;;5.70;;
47760;SDS011;33524;55.434;38.520;2023-09-19T04:06:03;9.43;;;6.60;;
47760;SDS011;33524;55.434;38.520;2023-09-19T04:08:31;7.97;;;6.10;;
47760;SDS011;33524;55.434;38.520;2023-09-19T04:10:59;7.30;;;5.95;;
47760;SDS011;33524;55.434;38.520;2023-09-19T04:13:28;6.82;;;5.57;;
47760;SDS011;33524;55.434;38.520;2023-09-19T04:15:56;8.32;;;5.87;;
47760;SDS011;33524;55.434;38.520;2023-09-19T04:18:24;7.47;;;6.50;;
47760;SDS011;33524;55.434;38.520;2023-09-19T04:20:53;6.72;;;5.68;;
47760;SDS011;33524;55.434;38.520;2023-09-19T04:25:49;6.43;;;5.37;;
47760;SDS011;33524;55.434;38.520;2023-09-19T04:28:17;9.10;;;6.47;;
47760;SDS011;33524;55.434;38.520;2023-09-19T04:30:46;10.38;;;7.30;;
47760;SDS011;33524;55.434;38.520;2023-09-19T04:33:14;9.07;;;7.55;;
47760;SDS011;33524;55.434;38.520;2023-09-19T04:35:42;11.35;;;7.28;;
47760;SDS011;33524;55.434;38.520;2023-09-19T04:38:10;11.02;;;7.45;;
47760;SDS011;33524;55.434;38.520;2023-09-19T04:40:39;11.20;;;8.00;;
47760;SDS011;33524;55.434;38.520;2023-09-19T04:43:07;9.52;;;6.68;;
47760;SDS011;33524;55.434;38.520;2023-09-19T04:45:35;10.82;;;7.90;;
47760;SDS011;33524;55.434;38.520;2023-09-19T04:48:07;8.50;;;6.50;;
47760;SDS011;33524;55.434;38.520;2023-09-19T04:50:36;8.02;;;6.18;;
47760;SDS011;33524;55.434;38.520;2023-09-19T04:53:04;9.57;;;6.87;;
47760;SDS011;33524;55.434;38.520;2023-09-19T04:55:32;12.57;;;8.35;;
47760;SDS011;33524;55.434;38.520;2023-09-19T04:57:58;7.53;;;5.57;;
47760;SDS011;33524;55.434;38.520;2023-09-19T05:00:27;9.02;;;7.05;;
47760;SDS011;33524;55.434;38.520;2023-09-19T05:02:58;9.93;;;7.97;;
47760;SDS011;33524;55.434;38.520;2023-09-19T05:05:26;10.38;;;7.57;;
47760;SDS011;33524;55.434;38.520;2023-09-19T05:07:55;8.63;;;6.97;;
47760;SDS011;33524;55.434;38.520;2023-09-19T05:10:23;12.60;;;7.53;;
47760;SDS011;33524;55.434;38.520;2023-09-19T05:12:55;10.02;;;6.50;;
47760;SDS011;33524;55.434;38.520;2023-09-19T05:15:23;8.90;;;6.68;;
47760;SDS011;33524;55.434;38.520;2023-09-19T05:17:51;10.00;;;7.12;;
47760;SDS011;33524;55.434;38.520;2023-09-19T05:20:25;10.40;;;6.03;;
47760;SDS011;33524;55.434;38.520;2023-09-19T05:23:01;7.82;;;5.47;;
47760;SDS011;33524;55.434;38.520;2023-09-19T05:25:31;7.22;;;5.80;;
47760;SDS011;33524;55.434;38.520;2023-09-19T05:30:31;9.02;;;6.80;;
47760;SDS011;33524;55.434;38.520;2023-09-19T05:33:00;8.77;;;6.43;;
47760;SDS011;33524;55.434;38.520;2023-09-19T05:35:29;8.40;;;6.32;;
47760;SDS011;33524;55.434;38.520;2023-09-19T05:37:58;7.55;;;5.07;;
47760;SDS011;33524;55.434;38.520;2023-09-19T05:40:27;7.87;;;6.35;;
47760;SDS011;33524;55.434;38.520;2023-09-19T05:42:55;9.35;;;6.50;;
47760;SDS011;33524;55.434;38.520;2023-09-19T05:45:23;8.10;;;5.97;;
47760;SDS011;33524;55.434;38.520;2023-09-19T05:47:52;9.35;;;6.40;;
47760;SDS011;33524;55.434;38.520;2023-09-19T05:50:29;6.68;;;5.15;;
47760;SDS011;33524;55.434;38.520;2023-09-19T05:52:57;8.00;;;6.28;;
47760;SDS011;33524;55.434;38.520;2023-09-19T05:55:25;8.88;;;6.45;;
47760;SDS011;33524;55.434;38.520;2023-09-19T05:57:54;7.87;;;6.47;;
47760;SDS011;33524;55.434;38.520;2023-09-19T06:02:55;7.45;;;4.90;;
47760;SDS011;33524;55.434;38.520;2023-09-19T06:05:26;6.15;;;4.45;;
47760;SDS011;33524;55.434;38.520;2023-09-19T06:07:56;7.20;;;5.07;;
47760;SDS011;33524;55.434;38.520;2023-09-19T06:10:30;8.63;;;5.68;;
47760;SDS011;33524;55.434;38.520;2023-09-19T06:13:00;6.80;;;5.50;;
47760;SDS011;33524;55.434;38.520;2023-09-19T06:15:32;6.67;;;5.40;;
47760;SDS011;33524;55.434;38.520;2023-09-19T06:18:01;8.88;;;6.37;;
47760;SDS011;33524;55.434;38.520;2023-09-19T06:20:32;8.25;;;5.75;;
47760;SDS011;33524;55.434;38.520;2023-09-19T06:23:01;8.00;;;6.15;;
47760;SDS011;33524;55.434;38.520;2023-09-19T06:25:30;11.27;;;6.68;;
47760;SDS011;33524;55.434;38.520;2023-09-19T06:27:59;8.73;;;5.75;;
47760;SDS011;33524;55.434;38.520;2023-09-19T06:30:27;6.57;;;4.62;;
47760;SDS011;33524;55.434;38.520;2023-09-19T06:35:26;10.15;;;5.35;;
47760;SDS011;33524;55.434;38.520;2023-09-19T06:37:55;9.60;;;4.75;;
47760;SDS011;33524;55.434;38.520;2023-09-19T06:40:26;9.27;;;6.20;;
47760;SDS011;33524;55.434;38.520;2023-09-19T06:45:32;7.12;;;4.87;;
47760;SDS011;33524;55.434;38.520;2023-09-19T06:48:00;9.35;;;6.07;;
47760;SDS011;33524;55.434;38.520;2023-09-19T06:50:30;7.90;;;5.60;;
47760;SDS011;33524;55.434;38.520;2023-09-19T06:52:58;7.70;;;4.55;;
47760;SDS011;33524;55.434;38.520;2023-09-19T06:55:28;8.90;;;5.80;;
47760;SDS011;33524;55.434;38.520;2023-09-19T06:58:00;7.87;;;4.85;;
47760;SDS011;33524;55.434;38.520;2023-09-19T07:00:28;8.48;;;5.82;;
47760;SDS011;33524;55.434;38.520;2023-09-19T07:03:07;4.80;;;3.37;;
47760;SDS011;33524;55.434;38.520;2023-09-19T07:05:40;11.82;;;6.07;;
47760;SDS011;33524;55.434;38.520;2023-09-19T07:08:09;7.05;;;3.37;;
47760;SDS011;33524;55.434;38.520;2023-09-19T07:10:41;6.40;;;4.75;;
47760;SDS011;33524;55.434;38.520;2023-09-19T07:13:16;7.80;;;4.97;;
47760;SDS011;33524;55.434;38.520;2023-09-19T07:15:45;7.35;;;4.65;;
47760;SDS011;33524;55.434;38.520;2023-09-19T07:18:18;6.80;;;4.95;;
47760;SDS011;33524;55.434;38.520;2023-09-19T07:20:48;7.85;;;4.68;;
47760;SDS011;33524;55.434;38.520;2023-09-19T07:23:20;8.18;;;5.50;;
47760;SDS011;33524;55.434;38.520;2023-09-19T07:25:50;8.25;;;5.55;;
47760;SDS011;33524;55.434;38.520;2023-09-19T07:28:17;9.00;;;5.10;;
47760;SDS011;33524;55.434;38.520;2023-09-19T07:30:46;8.02;;;5.30;;
47760;SDS011;33524;55.434;38.520;2023-09-19T07:33:14;6.10;;;4.60;;
47760;SDS011;33524;55.434;38.520;2023-09-19T07:35:48;7.75;;;4.68;;
47760;SDS011;33524;55.434;38.520;2023-09-19T07:38:17;5.75;;;4.72;;
47760;SDS011;33524;55.434;38.520;2023-09-19T07:40:45;8.88;;;5.05;;
47760;SDS011;33524;55.434;38.520;2023-09-19T07:43:16;7.12;;;5.07;;
47760;SDS011;33524;55.434;38.520;2023-09-19T07:45:47;6.87;;;4.87;;
47760;SDS011;33524;55.434;38.520;2023-09-19T07:48:16;10.52;;;6.10;;
47760;SDS011;33524;55.434;38.520;2023-09-19T07:50:44;9.55;;;5.82;;
47760;SDS011;33524;55.434;38.520;2023-09-19T07:53:13;11.48;;;6.60;;
47760;SDS011;33524;55.434;38.520;2023-09-19T07:55:43;9.25;;;5.62;;
47760;SDS011;33524;55.434;38.520;2023-09-19T07:58:16;8.85;;;6.20;;
47760;SDS011;33524;55.434;38.520;2023-09-19T08:00:44;9.05;;;5.53;;
47760;SDS011;33524;55.434;38.520;2023-09-19T08:03:19;10.80;;;6.07;;
47760;SDS011;33524;55.434;38.520;2023-09-19T08:05:48;11.55;;;6.43;;
47760;SDS011;33524;55.434;38.520;2023-09-19T08:08:17;8.75;;;5.32;;
47760;SDS011;33524;55.434;38.520;2023-09-19T08:10:45;10.10;;;6.07;;
47760;SDS011;33524;55.434;38.520;2023-09-19T08:13:20;11.18;;;6.50;;
47760;SDS011;33524;55.434;38.520;2023-09-19T08:15:50;7.62;;;4.75;;
47760;SDS011;33524;55.434;38.520;2023-09-19T08:18:19;15.57;;;6.78;;
47760;SDS011;33524;55.434;38.520;2023-09-19T08:20:51;10.38;;;6.78;;
47760;SDS011;33524;55.434;38.520;2023-09-19T08:23:20;11.57;;;5.45;;
47760;SDS011;33524;55.434;38.520;2023-09-19T08:25:49;13.98;;;7.65;;
47760;SDS011;33524;55.434;38.520;2023-09-19T08:28:18;10.38;;;7.00;;
47760;SDS011;33524;55.434;38.520;2023-09-19T08:30:52;10.57;;;6.37;;
47760;SDS011;33524;55.434;38.520;2023-09-19T08:33:23;9.57;;;6.43;;
47760;SDS011;33524;55.434;38.520;2023-09-19T08:35:52;10.30;;;6.60;;
47760;SDS011;33524;55.434;38.520;2023-09-19T08:38:22;11.43;;;6.15;;
47760;SDS011;33524;55.434;38.520;2023-09-19T08:40:52;9.68;;;7.03;;
47760;SDS011;33524;55.434;38.520;2023-09-19T08:43:21;9.82;;;5.50;;
47760;SDS011;33524;55.434;38.520;2023-09-19T08:45:49;8.73;;;6.57;;
47760;SDS011;33524;55.434;38.520;2023-09-19T08:48:28;8.45;;;5.05;;
47760;SDS011;33524;55.434;38.520;2023-09-19T08:53:51;9.80;;;6.30;;
47760;SDS011;33524;55.434;38.520;2023-09-19T08:56:32;9.68;;;6.50;;
47760;SDS011;33524;55.434;38.520;2023-09-19T08:59:02;12.73;;;6.95;;
47760;SDS011;33524;55.434;38.520;2023-09-19T09:01:32;9.95;;;6.80;;
47760;SDS011;33524;55.434;38.520;2023-09-19T09:04:00;10.07;;;6.50;;
47760;SDS011;33524;55.434;38.520;2023-09-19T09:06:30;14.07;;;6.68;;
47760;SDS011;33524;55.434;38.520;2023-09-19T09:09:00;8.27;;;6.25;;
47760;SDS011;33524;55.434;38.520;2023-09-19T09:11:32;12.40;;;7.18;;
47760;SDS011;33524;55.434;38.520;2023-09-19T09:14:00;12.30;;;6.40;;
47760;SDS011;33524;55.434;38.520;2023-09-19T09:16:29;14.63;;;8.52;;
47760;SDS011;33524;55.434;38.520;2023-09-19T09:18:59;10.02;;;6.30;;
47760;SDS011;33524;55.434;38.520;2023-09-19T09:21:35;10.77;;;7.10;;
47760;SDS011;33524;55.434;38.520;2023-09-19T09:24:25;9.88;;;5.55;;
47760;SDS011;33524;55.434;38.520;2023-09-19T09:26:59;9.60;;;6.55;;
47760;SDS011;33524;55.434;38.520;2023-09-19T09:29:52;10.65;;;6.22;;
47760;SDS011;33524;55.434;38.520;2023-09-19T09:32:28;10.35;;;6.78;;
47760;SDS011;33524;55.434;38.520;2023-09-19T09:35:07;10.65;;;6.57;;
47760;SDS011;33524;55.434;38.520;2023-09-19T09:37:42;10.23;;;5.43;;
47760;SDS011;33524;55.434;38.520;2023-09-19T09:40:13;9.32;;;5.43;;
47760;SDS011;33524;55.434;38.520;2023-09-19T09:42:41;8.48;;;5.57;;
47760;SDS011;33524;55.434;38.520;2023-09-19T09:45:27;8.48;;;5.75;;
47760;SDS011;33524;55.434;38.520;2023-09-19T09:48:05;11.15;;;7.20;;
47760;SDS011;33524;55.434;38.520;2023-09-19T09:50:47;8.82;;;5.82;;
47760;SDS011;33524;55.434;38.520;2023-09-19T09:53:34;9.07;;;5.97;;
47760;SDS011;33524;55.434;38.520;2023-09-19T09:56:06;9.85;;;6.57;;
47760;SDS011;33524;55.434;38.520;2023-09-19T09:58:36;7.25;;;5.55;;
47760;SDS011;33524;55.434;38.520;2023-09-19T10:01:24;10.57;;;6.25;;
47760;SDS011;33524;55.434;38.520;2023-09-19T10:04:04;7.70;;;5.97;;
47760;SDS011;33524;55.434;38.520;2023-09-19T10:06:40;10.45;;;7.55;;
47760;SDS011;33524;55.434;38.520;2023-09-19T10:09:20;7.45;;;4.80;;
47760;SDS011;33524;55.434;38.520;2023-09-19T10:12:05;9.23;;;6.10;;
47760;SDS011;33524;55.434;38.520;2023-09-19T10:14:43;11.38;;;6.18;;
47760;SDS011;33524;55.434;38.520;2023-09-19T10:17:18;13.55;;;7.55;;
47760;SDS011;33524;55.434;38.520;2023-09-19T10:19:57;11.07;;;5.90;;
47760;SDS011;33524;55.434;38.520;2023-09-19T10:22:46;11.52;;;6.97;;
47760;SDS011;33524;55.434;38.520;2023-09-19T10:25:32;8.25;;;5.53;;
47760;SDS011;33524;55.434;38.520;2023-09-19T10:28:16;11.95;;;6.32;;
47760;SDS011;33524;55.434;38.520;2023-09-19T10:31:02;10.18;;;6.70;;
47760;SDS011;33524;55.434;38.520;2023-09-19T10:33:35;9.52;;;5.97;;
47760;SDS011;33524;55.434;38.520;2023-09-19T10:36:18;10.52;;;6.53;;
47760;SDS011;33524;55.434;38.520;2023-09-19T10:38:54;9.68;;;6.82;;
47760;SDS011;33524;55.434;38.520;2023-09-19T10:41:34;8.68;;;5.70;;
47760;SDS011;33524;55.434;38.520;2023-09-19T10:44:10;9.45;;;5.40;;
47760;SDS011;33524;55.434;38.520;2023-09-19T10:47:01;9.25;;;6.80;;
47760;SDS011;33524;55.434;38.520;2023-09-19T10:49:47;8.80;;;5.55;;
47760;SDS011;33524;55.434;38.520;2023-09-19T10:52:23;10.88;;;5.90;;
47760;SDS011;33524;55.434;38.520;2023-09-19T10:55:10;13.32;;;6.07;;
47760;SDS011;33524;55.434;38.520;2023-09-19T10:57:54;12.48;;;5.82;;
47760;SDS011;33524;55.434;38.520;2023-09-19T11:01:04;8.27;;;4.87;;
47760;SDS011;33524;55.434;38.520;2023-09-19T11:03:45;8.75;;;5.85;;
47760;SDS011;33524;55.434;38.520;2023-09-19T11:06:25;8.98;;;5.30;;
47760;SDS011;33524;55.434;38.520;2023-09-19T11:08:57;9.73;;;5.50;;
47760;SDS011;33524;55.434;38.520;2023-09-19T11:11:53;11.48;;;5.37;;
47760;SDS011;33524;55.434;38.520;2023-09-19T11:14:29;5.50;;;4.10;;
47760;SDS011;33524;55.434;38.520;2023-09-19T11:30:56;9.50;;;5.65;;
47760;SDS011;33524;55.434;38.520;2023-09-19T11:33:44;6.97;;;5.07;;
47760;SDS011;33524;55.434;38.520;2023-09-19T11:36:29;7.75;;;5.65;;
47760;SDS011;33524;55.434;38.520;2023-09-19T11:39:24;8.95;;;5.37;;
47760;SDS011;33524;55.434;38.520;2023-09-19T11:42:02;8.30;;;5.35;;
47760;SDS011;33524;55.434;38.520;2023-09-19T11:48:31;33.92;;;16.98;;
47760;SDS011;33524;55.434;38.520;2023-09-19T11:51:14;81.20;;;52.62;;
47760;SDS011;33524;55.434;38.520;2023-09-19T11:53:57;273.55;;;179.70;;
47760;SDS011;33524;55.434;38.520;2023-09-19T11:56:32;397.05;;;248.20;;
47760;SDS011;33524;55.434;38.520;2023-09-19T11:59:22;43.05;;;32.20;;
47760;SDS011;33524;55.434;38.520;2023-09-19T12:02:07;67.15;;;41.22;;
47760;SDS011;33524;55.434;38.520;2023-09-19T12:04:53;18.27;;;10.85;;
47760;SDS011;33524;55.434;38.520;2023-09-19T12:07:41;53.10;;;40.05;;
47760;SDS011;33524;55.434;38.520;2023-09-19T12:10:16;17.90;;;13.00;;
47760;SDS011;33524;55.434;38.520;2023-09-19T12:12:55;14.32;;;9.48;;
47760;SDS011;33524;55.434;38.520;2023-09-19T12:15:31;45.80;;;34.70;;
47760;SDS011;33524;55.434;38.520;2023-09-19T12:18:07;15.20;;;8.38;;
47760;SDS011;33524;55.434;38.520;2023-09-19T12:20:43;9.32;;;6.37;;
47760;SDS011;33524;55.434;38.520;2023-09-19T12:23:19;10.63;;;6.68;;
47760;SDS011;33524;55.434;38.520;2023-09-19T12:25:50;11.32;;;7.45;;
47760;SDS011;33524;55.434;38.520;2023-09-19T12:28:30;9.90;;;6.80;;
47760;SDS011;33524;55.434;38.520;2023-09-19T12:31:09;13.55;;;7.80;;
47760;SDS011;33524;55.434;38.520;2023-09-19T12:33:52;14.75;;;8.25;;
47760;SDS011;33524;55.434;38.520;2023-09-19T12:36:31;37.13;;;28.60;;
47760;SDS011;33524;55.434;38.520;2023-09-19T12:41:38;26.52;;;18.67;;
47760;SDS011;33524;55.434;38.520;2023-09-19T12:44:11;20.33;;;15.02;;
47760;SDS011;33524;55.434;38.520;2023-09-19T12:46:53;16.45;;;11.70;;
47760;SDS011;33524;55.434;38.520;2023-09-19T12:52:46;16.08;;;12.40;;
47760;SDS011;33524;55.434;38.520;2023-09-19T12:55:31;15.75;;;11.32;;
47760;SDS011;33524;55.434;38.520;2023-09-19T12:58:20;11.90;;;8.13;;
47760;SDS011;33524;55.434;38.520;2023-09-19T13:00:54;10.00;;;6.18;;
47760;SDS011;33524;55.434;38.520;2023-09-19T13:03:35;16.23;;;9.18;;
47760;SDS011;33524;55.434;38.520;2023-09-19T13:06:12;14.00;;;9.60;;
47760;SDS011;33524;55.434;38.520;2023-09-19T13:09:07;11.23;;;7.65;;
47760;SDS011;33524;55.434;38.520;2023-09-19T13:11:39;9.52;;;7.60;;
47760;SDS011;33524;55.434;38.520;2023-09-19T13:14:19;16.17;;;8.68;;
47760;SDS011;33524;55.434;38.520;2023-09-19T13:19:49;15.40;;;10.02;;
47760;SDS011;33524;55.434;38.520;2023-09-19T13:22:42;15.93;;;8.43;;
47760;SDS011;33524;55.434;38.520;2023-09-19T13:25:21;13.48;;;7.60;;
47760;SDS011;33524;55.434;38.520;2023-09-19T13:27:58;16.10;;;9.57;;
47760;SDS011;33524;55.434;38.520;2023-09-19T13:30:37;18.48;;;9.27;;
47760;SDS011;33524;55.434;38.520;2023-09-19T13:33:13;17.85;;;9.10;;
47760;SDS011;33524;55.434;38.520;2023-09-19T13:35:58;12.00;;;7.78;;
47760;SDS011;33524;55.434;38.520;2023-09-19T13:38:33;12.70;;;7.40;;
47760;SDS011;33524;55.434;38.520;2023-09-19T13:41:03;11.68;;;8.30;;
47760;SDS011;33524;55.434;38.520;2023-09-19T13:43:33;11.98;;;9.57;;
47760;SDS011;33524;55.434;38.520;2023-09-19T13:46:02;18.80;;;10.30;;
47760;SDS011;33524;55.434;38.520;2023-09-19T13:48:31;23.00;;;12.00;;
47760;SDS011;33524;55.434;38.520;2023-09-19T13:51:03;14.15;;;10.00;;
47760;SDS011;33524;55.434;38.520;2023-09-19T13:53:33;17.80;;;9.38;;
47760;SDS011;33524;55.434;38.520;2023-09-19T13:56:04;15.15;;;8.32;;
47760;SDS011;33524;55.434;38.520;2023-09-19T13:58:33;9.38;;;7.07;;
47760;SDS011;33524;55.434;38.520;2023-09-19T14:01:02;12.80;;;7.95;;
47760;SDS011;33524;55.434;38.520;2023-09-19T14:03:34;13.77;;;7.37;;
47760;SDS011;33524;55.434;38.520;2023-09-19T14:06:04;12.32;;;7.37;;
47760;SDS011;33524;55.434;38.520;2023-09-19T14:08:41;11.35;;;6.22;;
47760;SDS011;33524;55.434;38.520;2023-09-19T14:11:08;13.88;;;6.75;;
47760;SDS011;33524;55.434;38.520;2023-09-19T14:13:37;9.13;;;6.57;;
47760;SDS011;33524;55.434;38.520;2023-09-19T14:16:07;8.60;;;5.78;;
47760;SDS011;33524;55.434;38.520;2023-09-19T14:18:39;14.32;;;7.00;;
47760;SDS011;33524;55.434;38.520;2023-09-19T14:21:11;11.20;;;6.62;;
47760;SDS011;33524;55.434;38.520;2023-09-19T14:23:41;9.95;;;6.62;;
47760;SDS011;33524;55.434;38.520;2023-09-19T14:26:14;10.63;;;7.00;;
47760;SDS011;33524;55.434;38.520;2023-09-19T14:31:15;10.60;;;7.97;;
47760;SDS011;33524;55.434;38.520;2023-09-19T14:33:44;17.17;;;8.45;;
47760;SDS011;33524;55.434;38.520;2023-09-19T14:36:13;14.10;;;8.43;;
47760;SDS011;33524;55.434;38.520;2023-09-19T14:38:53;12.07;;;8.75;;
47760;SDS011;33524;55.434;38.520;2023-09-19T14:41:23;14.60;;;9.68;;
47760;SDS011;33524;55.434;38.520;2023-09-19T14:43:54;14.25;;;9.00;;
47760;SDS011;33524;55.434;38.520;2023-09-19T14:46:23;12.57;;;8.93;;
47760;SDS011;33524;55.434;38.520;2023-09-19T14:48:52;17.52;;;8.35;;
47760;SDS011;33524;55.434;38.520;2023-09-19T14:51:22;15.00;;;9.02;;
47760;SDS011;33524;55.434;38.520;2023-09-19T14:53:50;15.23;;;9.98;;
47760;SDS011;33524;55.434;38.520;2023-09-19T14:56:23;14.05;;;10.27;;
47760;SDS011;33524;55.434;38.520;2023-09-19T14:58:53;17.20;;;9.88;;
47760;SDS011;33524;55.434;38.520;2023-09-19T15:01:25;15.60;;;10.80;;
47760;SDS011;33524;55.434;38.520;2023-09-19T15:03:51;17.55;;;10.77;;
47760;SDS011;33524;55.434;38.520;2023-09-19T15:06:22;18.98;;;11.88;;
47760;SDS011;33524;55.434;38.520;2023-09-19T15:08:51;21.83;;;15.05;;
47760;SDS011;33524;55.434;38.520;2023-09-19T15:11:20;23.15;;;13.73;;
47760;SDS011;33524;55.434;38.520;2023-09-19T15:13:52;20.67;;;13.10;;
47760;SDS011;33524;55.434;38.520;2023-09-19T15:16:24;19.42;;;13.70;;
47760;SDS011;33524;55.434;38.520;2023-09-19T15:18:53;22.20;;;13.18;;
47760;SDS011;33524;55.434;38.520;2023-09-19T15:21:26;16.95;;;11.65;;
47760;SDS011;33524;55.434;38.520;2023-09-19T15:23:55;21.08;;;11.93;;
47760;SDS011;33524;55.434;38.520;2023-09-19T15:26:23;21.67;;;12.57;;
47760;SDS011;33524;55.434;38.520;2023-09-19T15:28:53;19.92;;;12.52;;
47760;SDS011;33524;55.434;38.520;2023-09-19T15:31:22;20.10;;;13.15;;
47760;SDS011;33524;55.434;38.520;2023-09-19T15:33:56;22.50;;;13.90;;
47760;SDS011;33524;55.434;38.520;2023-09-19T15:36:26;25.50;;;15.07;;
47760;SDS011;33524;55.434;38.520;2023-09-19T15:41:35;19.42;;;14.65;;
47760;SDS011;33524;55.434;38.520;2023-09-19T15:44:11;26.20;;;17.05;;
47760;SDS011;33524;55.434;38.520;2023-09-19T15:46:42;26.05;;;15.73;;
47760;SDS011;33524;55.434;38.520;2023-09-19T15:49:12;25.73;;;17.70;;
47760;SDS011;33524;55.434;38.520;2023-09-19T15:51:41;30.75;;;16.62;;
47760;SDS011;33524;55.434;38.520;2023-09-19T15:56:53;24.65;;;17.85;;
47760;SDS011;33524;55.434;38.520;2023-09-19T15:59:23;34.78;;;21.48;;
47760;SDS011;33524;55.434;38.520;2023-09-19T16:01:54;35.15;;;25.50;;
47760;SDS011;33524;55.434;38.520;2023-09-19T16:06:55;45.83;;;29.35;;
47760;SDS011;33524;55.434;38.520;2023-09-19T16:09:24;40.38;;;27.62;;
47760;SDS011;33524;55.434;38.520;2023-09-19T16:11:54;40.53;;;26.80;;
47760;SDS011;33524;55.434;38.520;2023-09-19T16:14:23;36.45;;;26.40;;
47760;SDS011;33524;55.434;38.520;2023-09-19T16:16:52;40.20;;;27.00;;
47760;SDS011;33524;55.434;38.520;2023-09-19T16:19:23;44.30;;;26.92;;
47760;SDS011;33524;55.434;38.520;2023-09-19T16:21:54;37.28;;;25.75;;
47760;SDS011;33524;55.434;38.520;2023-09-19T16:24:24;37.60;;;25.25;;
47760;SDS011;33524;55.434;38.520;2023-09-19T16:26:53;30.67;;;22.75;;
47760;SDS011;33524;55.434;38.520;2023-09-19T16:29:25;35.08;;;22.50;;
47760;SDS011;33524;55.434;38.520;2023-09-19T16:31:54;31.55;;;22.33;;
47760;SDS011;33524;55.434;38.520;2023-09-19T16:34:23;35.70;;;22.15;;
47760;SDS011;33524;55.434;38.520;2023-09-19T16:36:52;31.95;;;23.12;;
47760;SDS011;33524;55.434;38.520;2023-09-19T16:39:21;38.28;;;25.58;;